sensor_id;sensor_type;location;lat;lon;timestamp;temperature;humidity
57753;DHT22;43583;53.132;6.574;2023-04-03T00:01:27;2.60;99.90
57753;DHT22;43583;53.132;6.574;2023-04-03T00:03:52;2.60;99.90
57753;DHT22;43583;53.132;6.574;2023-04-03T00:06:18;2.60;99.90
57753;DHT22;43583;53.132;6.574;2023-04-03T00:08:43;2.50;99.90
57753;DHT22;43583;53.132;6.574;2023-04-03T00:11:09;2.50;99.90
57753;DHT22;43583;53.132;6.574;2023-04-03T00:13:36;2.40;99.90
57753;DHT22;43583;53.132;6.574;2023-04-03T00:16:02;2.40;99.90
57753;DHT22;43583;53.132;6.574;2023-04-03T00:18:30;2.30;99.90
57753;DHT22;43583;53.132;6.574;2023-04-03T00:20:55;2.30;99.90
57753;DHT22;43583;53.132;6.574;2023-04-03T00:23:21;2.30;99.90
57753;DHT22;43583;53.132;6.574;2023-04-03T00:25:49;2.30;99.90
57753;DHT22;43583;53.132;6.574;2023-04-03T00:28:15;2.20;99.90
57753;DHT22;43583;53.132;6.574;2023-04-03T00:30:41;2.20;99.90
57753;DHT22;43583;53.132;6.574;2023-04-03T00:33:06;2.10;99.90
57753;DHT22;43583;53.132;6.574;2023-04-03T00:35:34;2.00;99.90
57753;DHT22;43583;53.132;6.574;2023-04-03T00:38:01;2.00;99.90
57753;DHT22;43583;53.132;6.574;2023-04-03T00:40:27;1.90;99.90
57753;DHT22;43583;53.132;6.574;2023-04-03T00:42:58;1.90;99.90
57753;DHT22;43583;53.132;6.574;2023-04-03T00:45:33;1.80;99.90
57753;DHT22;43583;53.132;6.574;2023-04-03T00:48:00;1.80;99.90
57753;DHT22;43583;53.132;6.574;2023-04-03T00:50:28;1.70;99.90
57753;DHT22;43583;53.132;6.574;2023-04-03T00:52:55;1.70;99.90
57753;DHT22;43583;53.132;6.574;2023-04-03T00:55:22;1.60;99.90
57753;DHT22;43583;53.132;6.574;2023-04-03T00:57:48;1.60;99.90
57753;DHT22;43583;53.132;6.574;2023-04-03T01:00:16;1.50;99.90
57753;DHT22;43583;53.132;6.574;2023-04-03T01:02:44;1.50;99.90
57753;DHT22;43583;53.132;6.574;2023-04-03T01:05:10;1.50;99.90
57753;DHT22;43583;53.132;6.574;2023-04-03T01:07:37;1.40;99.90
57753;DHT22;43583;53.132;6.574;2023-04-03T01:10:07;1.40;99.90
57753;DHT22;43583;53.132;6.574;2023-04-03T01:12:35;1.40;99.90
57753;DHT22;43583;53.132;6.574;2023-04-03T01:15:06;1.40;99.90
57753;DHT22;43583;53.132;6.574;2023-04-03T01:17:35;1.30;99.90
57753;DHT22;43583;53.132;6.574;2023-04-03T01:25:51;1.20;99.90
57753;DHT22;43583;53.132;6.574;2023-04-03T01:28:32;1.10;99.90
57753;DHT22;43583;53.132;6.574;2023-04-03T01:33:45;1.10;99.90
57753;DHT22;43583;53.132;6.574;2023-04-03T01:36:16;1.10;99.90
57753;DHT22;43583;53.132;6.574;2023-04-03T01:38:41;1.10;99.90
57753;DHT22;43583;53.132;6.574;2023-04-03T01:41:07;1.00;99.90
57753;DHT22;43583;53.132;6.574;2023-04-03T01:43:32;1.00;99.90
57753;DHT22;43583;53.132;6.574;2023-04-03T01:45:58;1.00;99.90
57753;DHT22;43583;53.132;6.574;2023-04-03T01:48:24;1.00;99.90
57753;DHT22;43583;53.132;6.574;2023-04-03T01:50:49;1.10;99.90
57753;DHT22;43583;53.132;6.574;2023-04-03T01:53:15;1.10;99.90
57753;DHT22;43583;53.132;6.574;2023-04-03T01:55:41;1.00;99.90
57753;DHT22;43583;53.132;6.574;2023-04-03T01:58:06;1.10;99.90
57753;DHT22;43583;53.132;6.574;2023-04-03T02:00:32;1.10;99.90
57753;DHT22;43583;53.132;6.574;2023-04-03T02:02:57;1.10;99.90
57753;DHT22;43583;53.132;6.574;2023-04-03T02:05:23;1.10;99.90
57753;DHT22;43583;53.132;6.574;2023-04-03T02:07:48;1.10;99.90
57753;DHT22;43583;53.132;6.574;2023-04-03T02:10:14;1.10;99.90
57753;DHT22;43583;53.132;6.574;2023-04-03T02:12:40;1.10;99.90
57753;DHT22;43583;53.132;6.574;2023-04-03T02:15:06;1.10;99.90
57753;DHT22;43583;53.132;6.574;2023-04-03T02:17:32;1.10;99.90
57753;DHT22;43583;53.132;6.574;2023-04-03T02:19:57;1.00;99.90
57753;DHT22;43583;53.132;6.574;2023-04-03T02:22:23;1.00;99.90
57753;DHT22;43583;53.132;6.574;2023-04-03T02:24:48;1.00;99.90
57753;DHT22;43583;53.132;6.574;2023-04-03T02:27:14;1.00;99.90
57753;DHT22;43583;53.132;6.574;2023-04-03T02:29:40;1.00;99.90
57753;DHT22;43583;53.132;6.574;2023-04-03T02:32:06;1.00;99.90
57753;DHT22;43583;53.132;6.574;2023-04-03T02:34:31;0.90;99.90
57753;DHT22;43583;53.132;6.574;2023-04-03T02:36:57;0.90;99.90
57753;DHT22;43583;53.132;6.574;2023-04-03T02:39:22;0.90;99.90
57753;DHT22;43583;53.132;6.574;2023-04-03T02:41:48;0.80;99.90
57753;DHT22;43583;53.132;6.574;2023-04-03T02:44:14;0.80;99.90
57753;DHT22;43583;53.132;6.574;2023-04-03T02:46:39;0.70;99.90
57753;DHT22;43583;53.132;6.574;2023-04-03T02:49:05;0.70;99.90
57753;DHT22;43583;53.132;6.574;2023-04-03T02:51:31;0.70;99.90
57753;DHT22;43583;53.132;6.574;2023-04-03T02:53:57;0.70;99.90
57753;DHT22;43583;53.132;6.574;2023-04-03T02:56:23;0.60;99.90
57753;DHT22;43583;53.132;6.574;2023-04-03T02:58:48;0.50;99.90
57753;DHT22;43583;53.132;6.574;2023-04-03T03:01:14;0.50;99.90
57753;DHT22;43583;53.132;6.574;2023-04-03T03:03:40;0.50;99.90
57753;DHT22;43583;53.132;6.574;2023-04-03T03:06:16;0.50;99.90
57753;DHT22;43583;53.132;6.574;2023-04-03T03:08:42;0.40;99.90
57753;DHT22;43583;53.132;6.574;2023-04-03T03:11:09;0.50;99.90
57753;DHT22;43583;53.132;6.574;2023-04-03T03:13:35;0.40;99.90
57753;DHT22;43583;53.132;6.574;2023-04-03T03:16:01;0.30;99.90
57753;DHT22;43583;53.132;6.574;2023-04-03T03:18:28;0.30;99.90
57753;DHT22;43583;53.132;6.574;2023-04-03T03:20:55;0.20;99.90
57753;DHT22;43583;53.132;6.574;2023-04-03T03:23:23;0.20;99.90
57753;DHT22;43583;53.132;6.574;2023-04-03T03:25:49;0.20;99.90
57753;DHT22;43583;53.132;6.574;2023-04-03T03:28:14;0.10;99.90
57753;DHT22;43583;53.132;6.574;2023-04-03T03:30:40;0.10;99.90
57753;DHT22;43583;53.132;6.574;2023-04-03T03:33:06;0.10;99.90
57753;DHT22;43583;53.132;6.574;2023-04-03T03:35:32;0.00;99.90
57753;DHT22;43583;53.132;6.574;2023-04-03T03:37:58;-0.10;99.90
57753;DHT22;43583;53.132;6.574;2023-04-03T03:40:23;-0.20;99.90
57753;DHT22;43583;53.132;6.574;2023-04-03T03:42:49;-0.30;99.90
57753;DHT22;43583;53.132;6.574;2023-04-03T03:45:14;-0.40;99.90
57753;DHT22;43583;53.132;6.574;2023-04-03T03:47:40;-0.30;99.90
57753;DHT22;43583;53.132;6.574;2023-04-03T03:50:06;-0.30;99.90
57753;DHT22;43583;53.132;6.574;2023-04-03T03:52:32;-0.30;99.90
57753;DHT22;43583;53.132;6.574;2023-04-03T03:54:57;-0.20;99.90
57753;DHT22;43583;53.132;6.574;2023-04-03T03:57:23;-0.20;99.90
57753;DHT22;43583;53.132;6.574;2023-04-03T03:59:48;-0.20;99.90
57753;DHT22;43583;53.132;6.574;2023-04-03T04:02:15;-0.20;99.90
57753;DHT22;43583;53.132;6.574;2023-04-03T04:04:41;-0.30;99.90
57753;DHT22;43583;53.132;6.574;2023-04-03T04:07:07;-0.30;99.90
57753;DHT22;43583;53.132;6.574;2023-04-03T04:09:32;-0.30;99.90
57753;DHT22;43583;53.132;6.574;2023-04-03T04:11:58;-0.30;99.90
57753;DHT22;43583;53.132;6.574;2023-04-03T04:14:23;-0.30;99.90
57753;DHT22;43583;53.132;6.574;2023-04-03T04:16:49;-0.30;99.90
57753;DHT22;43583;53.132;6.574;2023-04-03T04:19:15;-0.40;99.90
57753;DHT22;43583;53.132;6.574;2023-04-03T04:21:40;-0.40;99.90
57753;DHT22;43583;53.132;6.574;2023-04-03T04:24:07;-0.40;99.90
57753;DHT22;43583;53.132;6.574;2023-04-03T04:26:33;-0.40;99.90
57753;DHT22;43583;53.132;6.574;2023-04-03T04:28:58;-0.40;99.90
57753;DHT22;43583;53.132;6.574;2023-04-03T04:31:24;-0.50;99.90
57753;DHT22;43583;53.132;6.574;2023-04-03T04:33:50;-0.50;99.90
57753;DHT22;43583;53.132;6.574;2023-04-03T04:36:15;-0.50;99.90
57753;DHT22;43583;53.132;6.574;2023-04-03T04:38:41;-0.60;99.90
57753;DHT22;43583;53.132;6.574;2023-04-03T04:41:07;-0.60;99.90
57753;DHT22;43583;53.132;6.574;2023-04-03T04:43:33;-0.60;99.90
57753;DHT22;43583;53.132;6.574;2023-04-03T04:46:07;-0.70;99.90
57753;DHT22;43583;53.132;6.574;2023-04-03T04:48:34;-0.70;99.90
57753;DHT22;43583;53.132;6.574;2023-04-03T04:51:00;-0.70;99.90
57753;DHT22;43583;53.132;6.574;2023-04-03T04:53:25;-0.70;99.90
57753;DHT22;43583;53.132;6.574;2023-04-03T04:55:52;-0.70;99.90
57753;DHT22;43583;53.132;6.574;2023-04-03T04:58:18;-0.70;99.90
57753;DHT22;43583;53.132;6.574;2023-04-03T05:00:44;-0.70;99.90
57753;DHT22;43583;53.132;6.574;2023-04-03T05:03:10;-0.70;99.90
57753;DHT22;43583;53.132;6.574;2023-04-03T05:05:35;-0.70;99.90
57753;DHT22;43583;53.132;6.574;2023-04-03T05:08:01;-0.70;99.90
57753;DHT22;43583;53.132;6.574;2023-04-03T05:10:28;-0.80;99.90
57753;DHT22;43583;53.132;6.574;2023-04-03T05:12:53;-0.80;99.90
57753;DHT22;43583;53.132;6.574;2023-04-03T05:15:19;-0.80;99.90
57753;DHT22;43583;53.132;6.574;2023-04-03T05:17:45;-0.70;99.90
57753;DHT22;43583;53.132;6.574;2023-04-03T05:20:11;-0.70;99.90
57753;DHT22;43583;53.132;6.574;2023-04-03T05:22:37;-0.70;99.90
57753;DHT22;43583;53.132;6.574;2023-04-03T05:25:03;-0.70;99.90
57753;DHT22;43583;53.132;6.574;2023-04-03T05:27:28;-0.60;99.90
57753;DHT22;43583;53.132;6.574;2023-04-03T05:29:55;-0.50;99.90
57753;DHT22;43583;53.132;6.574;2023-04-03T05:32:21;-0.10;99.90
57753;DHT22;43583;53.132;6.574;2023-04-03T05:34:47;0.30;99.90
57753;DHT22;43583;53.132;6.574;2023-04-03T05:37:13;0.70;99.90
57753;DHT22;43583;53.132;6.574;2023-04-03T05:39:38;1.00;99.90
57753;DHT22;43583;53.132;6.574;2023-04-03T05:42:06;1.30;99.90
57753;DHT22;43583;53.132;6.574;2023-04-03T05:44:32;1.60;99.90
57753;DHT22;43583;53.132;6.574;2023-04-03T05:46:58;1.50;99.90
57753;DHT22;43583;53.132;6.574;2023-04-03T05:49:24;1.70;99.90
57753;DHT22;43583;53.132;6.574;2023-04-03T05:51:49;1.90;99.90
57753;DHT22;43583;53.132;6.574;2023-04-03T05:54:23;2.00;99.90
57753;DHT22;43583;53.132;6.574;2023-04-03T05:56:50;2.00;99.90
57753;DHT22;43583;53.132;6.574;2023-04-03T05:59:17;2.00;99.90
57753;DHT22;43583;53.132;6.574;2023-04-03T06:01:42;2.00;99.90
57753;DHT22;43583;53.132;6.574;2023-04-03T06:04:08;2.10;99.90
57753;DHT22;43583;53.132;6.574;2023-04-03T06:06:44;2.20;99.90
57753;DHT22;43583;53.132;6.574;2023-04-03T06:09:10;2.30;99.90
57753;DHT22;43583;53.132;6.574;2023-04-03T06:11:36;2.50;99.90
57753;DHT22;43583;53.132;6.574;2023-04-03T06:14:02;2.60;99.90
57753;DHT22;43583;53.132;6.574;2023-04-03T06:16:28;2.70;99.90
57753;DHT22;43583;53.132;6.574;2023-04-03T06:18:54;3.30;99.90
57753;DHT22;43583;53.132;6.574;2023-04-03T06:21:20;4.10;99.90
57753;DHT22;43583;53.132;6.574;2023-04-03T06:23:46;5.00;99.90
57753;DHT22;43583;53.132;6.574;2023-04-03T06:26:11;5.90;99.90
57753;DHT22;43583;53.132;6.574;2023-04-03T06:28:37;6.60;99.90
57753;DHT22;43583;53.132;6.574;2023-04-03T06:31:02;7.30;99.90
57753;DHT22;43583;53.132;6.574;2023-04-03T06:33:28;7.80;99.90
57753;DHT22;43583;53.132;6.574;2023-04-03T06:35:58;8.30;99.90
57753;DHT22;43583;53.132;6.574;2023-04-03T06:38:24;8.80;99.90
57753;DHT22;43583;53.132;6.574;2023-04-03T06:40:50;9.00;99.90
57753;DHT22;43583;53.132;6.574;2023-04-03T06:43:17;9.20;99.90
57753;DHT22;43583;53.132;6.574;2023-04-03T06:45:42;9.60;99.90
57753;DHT22;43583;53.132;6.574;2023-04-03T06:48:08;9.90;99.90
57753;DHT22;43583;53.132;6.574;2023-04-03T06:50:34;10.00;99.90
57753;DHT22;43583;53.132;6.574;2023-04-03T06:53:00;10.30;99.90
57753;DHT22;43583;53.132;6.574;2023-04-03T06:55:26;10.40;99.90
57753;DHT22;43583;53.132;6.574;2023-04-03T06:57:52;10.40;99.00
57753;DHT22;43583;53.132;6.574;2023-04-03T07:00:18;10.30;98.50
57753;DHT22;43583;53.132;6.574;2023-04-03T07:02:43;9.80;98.40
57753;DHT22;43583;53.132;6.574;2023-04-03T07:05:09;9.80;98.20
57753;DHT22;43583;53.132;6.574;2023-04-03T07:07:35;9.90;97.80
57753;DHT22;43583;53.132;6.574;2023-04-03T07:10:01;9.90;97.50
57753;DHT22;43583;53.132;6.574;2023-04-03T07:12:26;9.80;97.00
57753;DHT22;43583;53.132;6.574;2023-04-03T07:14:52;9.70;96.90
57753;DHT22;43583;53.132;6.574;2023-04-03T07:17:18;9.80;96.60
57753;DHT22;43583;53.132;6.574;2023-04-03T07:19:43;9.70;96.00
57753;DHT22;43583;53.132;6.574;2023-04-03T07:22:09;9.80;95.90
57753;DHT22;43583;53.132;6.574;2023-04-03T07:24:36;9.60;95.50
57753;DHT22;43583;53.132;6.574;2023-04-03T07:27:02;9.60;95.00
57753;DHT22;43583;53.132;6.574;2023-04-03T07:29:29;9.40;94.80
57753;DHT22;43583;53.132;6.574;2023-04-03T07:31:55;9.40;95.00
57753;DHT22;43583;53.132;6.574;2023-04-03T07:34:21;9.50;94.80
57753;DHT22;43583;53.132;6.574;2023-04-03T07:36:47;9.70;94.80
57753;DHT22;43583;53.132;6.574;2023-04-03T07:39:12;10.00;94.50
57753;DHT22;43583;53.132;6.574;2023-04-03T07:41:38;10.00;94.10
57753;DHT22;43583;53.132;6.574;2023-04-03T07:44:04;10.20;93.60
57753;DHT22;43583;53.132;6.574;2023-04-03T07:46:31;10.40;93.40
57753;DHT22;43583;53.132;6.574;2023-04-03T07:48:56;10.50;93.30
57753;DHT22;43583;53.132;6.574;2023-04-03T07:51:22;10.90;93.10
57753;DHT22;43583;53.132;6.574;2023-04-03T07:53:47;10.80;92.00
57753;DHT22;43583;53.132;6.574;2023-04-03T07:56:13;10.90;91.80
57753;DHT22;43583;53.132;6.574;2023-04-03T07:58:39;11.10;91.50
57753;DHT22;43583;53.132;6.574;2023-04-03T08:01:05;11.20;90.80
57753;DHT22;43583;53.132;6.574;2023-04-03T08:03:31;11.20;90.80
57753;DHT22;43583;53.132;6.574;2023-04-03T08:06:02;11.20;90.40
57753;DHT22;43583;53.132;6.574;2023-04-03T08:08:29;10.90;89.90
57753;DHT22;43583;53.132;6.574;2023-04-03T08:10:59;10.80;89.60
57753;DHT22;43583;53.132;6.574;2023-04-03T08:13:26;11.00;89.10
57753;DHT22;43583;53.132;6.574;2023-04-03T08:15:51;11.20;88.40
57753;DHT22;43583;53.132;6.574;2023-04-03T08:18:17;11.10;87.20
57753;DHT22;43583;53.132;6.574;2023-04-03T08:20:46;11.10;86.80
57753;DHT22;43583;53.132;6.574;2023-04-03T08:23:12;11.00;86.00
57753;DHT22;43583;53.132;6.574;2023-04-03T08:25:39;11.10;85.80
57753;DHT22;43583;53.132;6.574;2023-04-03T08:28:05;11.10;84.70
57753;DHT22;43583;53.132;6.574;2023-04-03T08:30:30;11.10;83.00
57753;DHT22;43583;53.132;6.574;2023-04-03T08:32:56;10.90;82.60
57753;DHT22;43583;53.132;6.574;2023-04-03T08:35:21;10.90;82.70
57753;DHT22;43583;53.132;6.574;2023-04-03T08:37:47;10.90;80.50
57753;DHT22;43583;53.132;6.574;2023-04-03T08:40:15;11.10;80.60
57753;DHT22;43583;53.132;6.574;2023-04-03T08:48:21;11.80;77.50
57753;DHT22;43583;53.132;6.574;2023-04-03T08:50:53;11.70;75.30
57753;DHT22;43583;53.132;6.574;2023-04-03T08:53:29;11.60;76.70
57753;DHT22;43583;53.132;6.574;2023-04-03T08:55:58;11.50;74.60
57753;DHT22;43583;53.132;6.574;2023-04-03T08:58:30;11.30;75.70
57753;DHT22;43583;53.132;6.574;2023-04-03T09:01:02;11.10;75.60
57753;DHT22;43583;53.132;6.574;2023-04-03T09:03:36;11.00;75.20
57753;DHT22;43583;53.132;6.574;2023-04-03T09:06:06;11.40;75.30
57753;DHT22;43583;53.132;6.574;2023-04-03T09:11:26;12.50;71.80
57753;DHT22;43583;53.132;6.574;2023-04-03T09:14:02;12.50;70.50
57753;DHT22;43583;53.132;6.574;2023-04-03T09:16:58;12.00;70.00
57753;DHT22;43583;53.132;6.574;2023-04-03T09:22:17;12.00;70.50
57753;DHT22;43583;53.132;6.574;2023-04-03T09:24:47;12.20;71.40
57753;DHT22;43583;53.132;6.574;2023-04-03T09:27:14;12.70;72.80
57753;DHT22;43583;53.132;6.574;2023-04-03T09:29:41;12.90;69.50
57753;DHT22;43583;53.132;6.574;2023-04-03T09:32:35;12.90;68.70
57753;DHT22;43583;53.132;6.574;2023-04-03T09:35:23;12.40;66.00
57753;DHT22;43583;53.132;6.574;2023-04-03T09:37:52;11.80;69.10
57753;DHT22;43583;53.132;6.574;2023-04-03T09:40:43;11.10;67.40
57753;DHT22;43583;53.132;6.574;2023-04-03T09:43:30;10.30;68.30
57753;DHT22;43583;53.132;6.574;2023-04-03T09:46:28;9.80;70.30
57753;DHT22;43583;53.132;6.574;2023-04-03T09:48:59;9.50;70.70
57753;DHT22;43583;53.132;6.574;2023-04-03T09:51:26;9.40;72.60
57753;DHT22;43583;53.132;6.574;2023-04-03T09:53:53;9.40;74.80
57753;DHT22;43583;53.132;6.574;2023-04-03T09:56:23;9.40;74.80
57753;DHT22;43583;53.132;6.574;2023-04-03T10:01:29;8.90;74.10
57753;DHT22;43583;53.132;6.574;2023-04-03T10:06:42;8.80;75.50
57753;DHT22;43583;53.132;6.574;2023-04-03T10:09:31;8.80;76.90
57753;DHT22;43583;53.132;6.574;2023-04-03T10:12:05;8.80;73.10
57753;DHT22;43583;53.132;6.574;2023-04-03T10:14:33;8.70;74.00
57753;DHT22;43583;53.132;6.574;2023-04-03T10:17:03;8.80;75.00
57753;DHT22;43583;53.132;6.574;2023-04-03T10:19:47;8.80;74.20
57753;DHT22;43583;53.132;6.574;2023-04-03T10:33:35;8.90;72.00
57753;DHT22;43583;53.132;6.574;2023-04-03T10:36:19;9.10;73.90
57753;DHT22;43583;53.132;6.574;2023-04-03T10:39:10;9.20;72.70
57753;DHT22;43583;53.132;6.574;2023-04-03T10:44:28;9.60;74.80
57753;DHT22;43583;53.132;6.574;2023-04-03T10:47:11;9.70;72.90
57753;DHT22;43583;53.132;6.574;2023-04-03T10:50:00;9.50;71.30
57753;DHT22;43583;53.132;6.574;2023-04-03T10:55:46;9.20;70.20
57753;DHT22;43583;53.132;6.574;2023-04-03T10:58:43;9.20;69.10
57753;DHT22;43583;53.132;6.574;2023-04-03T11:01:13;9.20;66.20
57753;DHT22;43583;53.132;6.574;2023-04-03T11:03:49;9.10;66.40
57753;DHT22;43583;53.132;6.574;2023-04-03T11:06:20;9.10;67.90
57753;DHT22;43583;53.132;6.574;2023-04-03T11:08:52;9.10;67.80
57753;DHT22;43583;53.132;6.574;2023-04-03T11:11:25;9.10;65.90
57753;DHT22;43583;53.132;6.574;2023-04-03T11:13:57;9.20;67.70
57753;DHT22;43583;53.132;6.574;2023-04-03T11:16:27;9.00;67.50
57753;DHT22;43583;53.132;6.574;2023-04-03T11:19:12;9.10;69.10
57753;DHT22;43583;53.132;6.574;2023-04-03T11:21:42;9.20;69.70
57753;DHT22;43583;53.132;6.574;2023-04-03T11:24:24;9.30;68.80
57753;DHT22;43583;53.132;6.574;2023-04-03T11:26:50;9.40;68.50
57753;DHT22;43583;53.132;6.574;2023-04-03T11:29:29;9.30;68.10
57753;DHT22;43583;53.132;6.574;2023-04-03T11:32:02;9.30;68.10
57753;DHT22;43583;53.132;6.574;2023-04-03T11:34:44;9.30;68.40
57753;DHT22;43583;53.132;6.574;2023-04-03T11:37:40;9.30;66.50
57753;DHT22;43583;53.132;6.574;2023-04-03T11:40:31;9.30;67.30
57753;DHT22;43583;53.132;6.574;2023-04-03T11:43:07;9.40;67.10
57753;DHT22;43583;53.132;6.574;2023-04-03T11:45:49;9.40;67.50
57753;DHT22;43583;53.132;6.574;2023-04-03T11:50:48;9.50;67.60
57753;DHT22;43583;53.132;6.574;2023-04-03T11:58:21;9.40;67.90
57753;DHT22;43583;53.132;6.574;2023-04-03T12:00:52;9.40;66.40
57753;DHT22;43583;53.132;6.574;2023-04-03T12:16:29;9.70;67.60
57753;DHT22;43583;53.132;6.574;2023-04-03T12:19:34;9.70;66.40
57753;DHT22;43583;53.132;6.574;2023-04-03T12:24:29;9.50;65.90
57753;DHT22;43583;53.132;6.574;2023-04-03T12:27:25;9.50;64.60
57753;DHT22;43583;53.132;6.574;2023-04-03T12:51:28;9.60;65.70
57753;DHT22;43583;53.132;6.574;2023-04-03T12:57:26;9.50;65.00
57753;DHT22;43583;53.132;6.574;2023-04-03T12:59:53;9.50;66.30
57753;DHT22;43583;53.132;6.574;2023-04-03T13:02:30;9.50;65.40
57753;DHT22;43583;53.132;6.574;2023-04-03T13:04:59;9.60;66.80
57753;DHT22;43583;53.132;6.574;2023-04-03T13:07:35;9.60;64.80
57753;DHT22;43583;53.132;6.574;2023-04-03T13:10:14;9.60;65.50
57753;DHT22;43583;53.132;6.574;2023-04-03T13:12:50;9.70;65.20
57753;DHT22;43583;53.132;6.574;2023-04-03T13:17:48;9.80;67.10
57753;DHT22;43583;53.132;6.574;2023-04-03T13:20:29;9.80;66.10
57753;DHT22;43583;53.132;6.574;2023-04-03T13:23:03;9.70;65.00
57753;DHT22;43583;53.132;6.574;2023-04-03T13:25:32;9.80;65.70
57753;DHT22;43583;53.132;6.574;2023-04-03T13:28:01;9.80;66.70
57753;DHT22;43583;53.132;6.574;2023-04-03T13:30:35;9.90;66.00
57753;DHT22;43583;53.132;6.574;2023-04-03T13:33:04;9.90;65.70
57753;DHT22;43583;53.132;6.574;2023-04-03T13:35:39;9.70;65.20
57753;DHT22;43583;53.132;6.574;2023-04-03T13:38:22;9.70;67.30
57753;DHT22;43583;53.132;6.574;2023-04-03T13:40:55;9.80;66.50
57753;DHT22;43583;53.132;6.574;2023-04-03T13:43:26;9.80;66.60
57753;DHT22;43583;53.132;6.574;2023-04-03T13:46:06;9.90;66.30
57753;DHT22;43583;53.132;6.574;2023-04-03T13:48:49;10.00;67.40
57753;DHT22;43583;53.132;6.574;2023-04-03T13:56:19;9.80;65.00
57753;DHT22;43583;53.132;6.574;2023-04-03T14:01:50;9.70;64.00
57753;DHT22;43583;53.132;6.574;2023-04-03T14:04:25;9.60;65.50
57753;DHT22;43583;53.132;6.574;2023-04-03T14:06:51;9.60;65.20
57753;DHT22;43583;53.132;6.574;2023-04-03T14:09:19;9.60;65.00
57753;DHT22;43583;53.132;6.574;2023-04-03T14:11:46;9.60;63.90
57753;DHT22;43583;53.132;6.574;2023-04-03T14:14:15;9.70;64.00
57753;DHT22;43583;53.132;6.574;2023-04-03T14:16:46;9.60;63.10
57753;DHT22;43583;53.132;6.574;2023-04-03T14:19:19;9.70;64.50
57753;DHT22;43583;53.132;6.574;2023-04-03T14:21:46;9.70;63.60
57753;DHT22;43583;53.132;6.574;2023-04-03T14:24:11;9.70;63.80
57753;DHT22;43583;53.132;6.574;2023-04-03T14:26:37;9.60;63.70
57753;DHT22;43583;53.132;6.574;2023-04-03T14:29:03;9.60;65.20
57753;DHT22;43583;53.132;6.574;2023-04-03T14:31:29;9.60;64.30
57753;DHT22;43583;53.132;6.574;2023-04-03T14:33:54;9.40;63.60
57753;DHT22;43583;53.132;6.574;2023-04-03T14:36:25;9.50;64.50
57753;DHT22;43583;53.132;6.574;2023-04-03T14:38:52;9.40;64.80
57753;DHT22;43583;53.132;6.574;2023-04-03T14:41:20;9.50;65.90
57753;DHT22;43583;53.132;6.574;2023-04-03T14:43:47;9.40;67.30
57753;DHT22;43583;53.132;6.574;2023-04-03T14:46:36;9.40;66.80
57753;DHT22;43583;53.132;6.574;2023-04-03T14:49:00;9.40;66.70
57753;DHT22;43583;53.132;6.574;2023-04-03T14:51:26;9.40;67.60
57753;DHT22;43583;53.132;6.574;2023-04-03T14:53:52;9.40;67.30
57753;DHT22;43583;53.132;6.574;2023-04-03T14:56:19;9.30;66.80
57753;DHT22;43583;53.132;6.574;2023-04-03T14:58:48;9.30;67.80
57753;DHT22;43583;53.132;6.574;2023-04-03T15:01:16;9.30;67.00
57753;DHT22;43583;53.132;6.574;2023-04-03T15:03:42;9.20;67.00
57753;DHT22;43583;53.132;6.574;2023-04-03T15:06:11;9.20;67.70
57753;DHT22;43583;53.132;6.574;2023-04-03T15:08:37;9.20;67.10
57753;DHT22;43583;53.132;6.574;2023-04-03T15:11:02;9.20;67.10
57753;DHT22;43583;53.132;6.574;2023-04-03T15:13:28;9.20;66.90
57753;DHT22;43583;53.132;6.574;2023-04-03T15:15:54;9.20;66.10
57753;DHT22;43583;53.132;6.574;2023-04-03T15:18:22;9.20;66.60
57753;DHT22;43583;53.132;6.574;2023-04-03T15:20:49;9.20;67.00
57753;DHT22;43583;53.132;6.574;2023-04-03T15:23:16;9.20;67.30
57753;DHT22;43583;53.132;6.574;2023-04-03T15:25:46;9.20;67.40
57753;DHT22;43583;53.132;6.574;2023-04-03T15:28:26;9.20;67.60
57753;DHT22;43583;53.132;6.574;2023-04-03T15:30:53;9.10;66.80
57753;DHT22;43583;53.132;6.574;2023-04-03T15:33:19;9.10;68.00
57753;DHT22;43583;53.132;6.574;2023-04-03T15:35:44;9.10;67.90
57753;DHT22;43583;53.132;6.574;2023-04-03T15:38:10;9.10;66.60
57753;DHT22;43583;53.132;6.574;2023-04-03T15:40:36;9.10;66.20
57753;DHT22;43583;53.132;6.574;2023-04-03T15:43:04;9.00;67.10
57753;DHT22;43583;53.132;6.574;2023-04-03T15:45:31;9.10;67.60
57753;DHT22;43583;53.132;6.574;2023-04-03T15:47:57;9.10;67.40
57753;DHT22;43583;53.132;6.574;2023-04-03T15:50:23;9.00;67.80
57753;DHT22;43583;53.132;6.574;2023-04-03T15:52:50;9.00;67.60
57753;DHT22;43583;53.132;6.574;2023-04-03T15:55:27;9.10;68.70
57753;DHT22;43583;53.132;6.574;2023-04-03T15:57:53;9.10;69.60
57753;DHT22;43583;53.132;6.574;2023-04-03T16:00:19;9.10;68.40
57753;DHT22;43583;53.132;6.574;2023-04-03T16:02:47;9.10;68.60
57753;DHT22;43583;53.132;6.574;2023-04-03T16:05:13;9.00;68.70
57753;DHT22;43583;53.132;6.574;2023-04-03T16:07:41;9.00;67.90
57753;DHT22;43583;53.132;6.574;2023-04-03T16:10:08;9.00;67.50
57753;DHT22;43583;53.132;6.574;2023-04-03T16:12:34;8.90;67.00
57753;DHT22;43583;53.132;6.574;2023-04-03T16:15:00;8.90;66.70
57753;DHT22;43583;53.132;6.574;2023-04-03T16:17:26;8.80;65.80
57753;DHT22;43583;53.132;6.574;2023-04-03T16:19:53;8.80;66.00
57753;DHT22;43583;53.132;6.574;2023-04-03T16:22:19;8.70;65.80
57753;DHT22;43583;53.132;6.574;2023-04-03T16:24:44;8.70;65.90
57753;DHT22;43583;53.132;6.574;2023-04-03T16:27:10;8.70;66.20
57753;DHT22;43583;53.132;6.574;2023-04-03T16:29:35;8.70;66.00
57753;DHT22;43583;53.132;6.574;2023-04-03T16:32:02;8.60;64.90
57753;DHT22;43583;53.132;6.574;2023-04-03T16:34:28;8.50;64.60
57753;DHT22;43583;53.132;6.574;2023-04-03T16:36:55;8.40;64.50
57753;DHT22;43583;53.132;6.574;2023-04-03T16:39:21;8.40;66.20
57753;DHT22;43583;53.132;6.574;2023-04-03T16:41:46;8.30;65.90
57753;DHT22;43583;53.132;6.574;2023-04-03T16:44:12;8.30;67.50
57753;DHT22;43583;53.132;6.574;2023-04-03T16:46:39;8.20;67.60
57753;DHT22;43583;53.132;6.574;2023-04-03T16:49:04;8.20;68.50
57753;DHT22;43583;53.132;6.574;2023-04-03T16:51:30;8.10;69.10
57753;DHT22;43583;53.132;6.574;2023-04-03T16:53:57;8.10;68.20
57753;DHT22;43583;53.132;6.574;2023-04-03T16:56:23;8.00;66.60
57753;DHT22;43583;53.132;6.574;2023-04-03T16:58:49;8.00;67.50
57753;DHT22;43583;53.132;6.574;2023-04-03T17:01:16;7.90;67.70
57753;DHT22;43583;53.132;6.574;2023-04-03T17:03:42;7.90;68.80
57753;DHT22;43583;53.132;6.574;2023-04-03T17:06:11;7.80;69.60
57753;DHT22;43583;53.132;6.574;2023-04-03T17:08:45;7.70;70.00
57753;DHT22;43583;53.132;6.574;2023-04-03T17:11:11;7.60;69.90
57753;DHT22;43583;53.132;6.574;2023-04-03T17:13:37;7.60;70.40
57753;DHT22;43583;53.132;6.574;2023-04-03T17:16:04;7.50;70.60
57753;DHT22;43583;53.132;6.574;2023-04-03T17:18:31;7.40;73.00
57753;DHT22;43583;53.132;6.574;2023-04-03T17:20:57;7.30;74.80
57753;DHT22;43583;53.132;6.574;2023-04-03T17:23:27;7.20;76.70
57753;DHT22;43583;53.132;6.574;2023-04-03T17:25:54;7.10;78.70
57753;DHT22;43583;53.132;6.574;2023-04-03T17:28:21;7.00;79.10
57753;DHT22;43583;53.132;6.574;2023-04-03T17:30:50;6.90;80.30
57753;DHT22;43583;53.132;6.574;2023-04-03T17:33:15;6.70;81.50